weather.gov     
National Weather Service

Terminal Aerodrome Forecast
NWS Homepage
This page is being discontinued on March 12, 2014.
The same data is available at this site. Please update your bookmarks.
Thank you, and we apologize for the inconvenience.
Please send an email to SR-SRH.Webmaster@noaa.gov with any concerns.


Current Version
Previous Version:    01  02  03  04  05  06  07  08  09  10  11  12  13  14  15  16  17  18  19  20  21  22  23  24  25  26  27  
[Printable]
943
FTUS43 KSGF 202300 CCA
TAFJLN
TAF
KJLN 202330Z 2100/2124 21007KT P6SM FEW060 OVC150
     FM210100 17007KT P6SM SCT060 OVC120
     FM210500 17007KT 5SM -SHRA BR FEW030 OVC060
     FM210800 17007KT 5SM -SHRA BR BKN025 OVC040
      TEMPO 2108/2112 3SM SHRA BR SCT015 OVC025
     FM211200 20009KT 4SM -SHRA BR SCT015 OVC025
     FM211700 24010KT 5SM -SHRA BR SCT015 OVC030
     FM212000 28010KT P6SM -SHRA VCTS BKN040CB OVC120=


U.S. Dept. of Commerce
NOAA National Weather Service
1325 East West Highway
Silver Spring, MD 20910
E-mail: w-nws.webmaster@noaa.gov
Page last modified: May 16, 2007
NATIONAL WEATHER SERVICE: for Safety, for Work, for Fun - FOR LIFE